Thunder radar more information blitzortung!


Radar de pluja more information rain snow radar


Visita la nostra xarxa de llocs de meteo:

Template documentation
and downloads

And another site



No particular awareness of the weather is required.    There are no Weather-warnings

Pagina Historial Weather Underground text

Diari Resum Agost 16, 2017 Unitats:  Imperial    Mètric   Tant
« Previous Dia
SegĂźent Dia »
Diari Setmana Mensual Anual Personalitzada
  Maxima: Minima: Media:
Temperatura: TemperatureC °F 20.6 °F 26 °F
Punt de rosada: DewpointC °F 14.6 °F 17.1 °F
Humitat: Humidity % 43 % 59 %
Wind Speed: WindSpeedKMH mph 0.0 mph 7.2 mph
RĂ fegues de vent: WindSpeedGustKMH mph - -
Vent:- - East
Pression baro: PressurehPa in 1014.8 in -
Precipitacions: 0.0 in    
Historical Graphs
 
 
Dades de taula per Agost 16, 2017
Temps Temperatura Punt de rosada Pression baro Vent Wind Speed RĂ fegues de vent Humitat Rainfall Rate (Hourly)
TemperatureC °F DewpointC °F PressurehPa in Calm     Humidity % HourlyPrecipMM in
00:04 23.6 °F 17.3 °F 1016.8 in NNE 5.6 mph 5.6 mph 68 % 0.0 in
00:05 22.0 °F 18.0 °F 1017.8 in NE 1.6 mph 3.2 mph 78 % 0.0 in
00:09 23.5 °F 17.3 °F 1016.8 in NE 5.6 mph 5.6 mph 68 % 0.0 in
00:14 23.5 °F 17.3 °F 1017.8 in South 1.9 mph   68 % 0.0 in
00:15 22.0 °F 18.0 °F 1017.8 in NNE 1.6 mph 3.2 mph 78 % 0.0 in
00:19 23.4 °F 17.2 °F 1017.8 in Calm     68 % 0.0 in
00:24 23.3 °F 17.1 °F 1017.8 in NNE 3.7 mph 3.7 mph 68 % 0.0 in
00:25 22.0 °F 18.0 °F 1017.8 in NNE 3.2 mph 4.8 mph 78 % 0.0 in
00:29 23.2 °F 16.9 °F 1017.8 in NW 1.9 mph   68 % 0.0 in
00:34 23.1 °F 16.9 °F 1017.8 in NE 1.9 mph   68 % 0.0 in
00:35 22.0 °F 18.0 °F 1017.8 in NNE 3.2 mph 4.8 mph 78 % 0.0 in
00:39 23.1 °F 16.9 °F 1017.8 in NE 1.9 mph   68 % 0.0 in
00:44 23.0 °F 17.0 °F 1017.8 in NNE 3.9 mph 3.9 mph 69 % 0.0 in
00:45 22.0 °F 18.0 °F 1017.8 in NE 3.2 mph 4.8 mph 78 % 0.0 in
00:49 23.0 °F 17.0 °F 1017.8 in NNE 4.2 mph 4.2 mph 69 % 0.0 in
00:54 23.0 °F 17.0 °F 1017.8 in ENE 4.7 mph 4.7 mph 69 % 0.0 in
00:55 22.0 °F 18.2 °F 1017.8 in NNE 4.8 mph 4.8 mph 79 % 0.0 in
00:59 22.9 °F 16.9 °F 1017.8 in ENE 5.6 mph 5.6 mph 69 % 0.0 in
01:04 22.8 °F 16.8 °F 1017.8 in NE 4.2 mph 4.2 mph 69 % 0.0 in
01:05 22.0 °F 18.2 °F 1018.8 in NE 3.2 mph 4.8 mph 79 % 0.0 in
01:09 22.7 °F 16.7 °F 1017.8 in Calm     69 % 0.0 in
01:14 22.6 °F 16.8 °F 1017.8 in Calm     70 % 0.0 in
01:15 22.0 °F 18.2 °F 1017.8 in NE 3.2 mph 4.8 mph 79 % 0.0 in
01:19 22.4 °F 16.9 °F 1017.8 in NNE 1.9 mph 1.9 mph 71 % 0.0 in
01:24 22.4 °F 16.9 °F 1017.8 in NNW 1.9 mph 1.9 mph 71 % 0.0 in
01:25 21.9 °F 18.1 °F 1017.8 in NNE 1.6 mph 4.8 mph 79 % 0.0 in
01:29 22.3 °F 16.8 °F 1017.8 in NNW 1.9 mph   71 % 0.0 in
01:35 21.7 °F 17.9 °F 1017.8 in NNE 3.2 mph 3.2 mph 79 % 0.0 in
01:45 21.6 °F 17.8 °F 1017.8 in NNE 1.6 mph 3.2 mph 79 % 0.0 in
01:55 21.5 °F 17.7 °F 1017.8 in NNE 1.6 mph 4.8 mph 79 % 0.0 in
02:05 21.3 °F 17.5 °F 1017.8 in NNE 1.6 mph 4.8 mph 79 % 0.0 in
02:15 21.2 °F 17.4 °F 1017.8 in NE 1.6 mph 3.2 mph 79 % 0.0 in
02:25 21.0 °F 17.2 °F 1017.8 in NE 1.6 mph 4.8 mph 79 % 0.0 in
02:35 20.9 °F 17.3 °F 1017.8 in NNE 1.6 mph 3.2 mph 80 % 0.0 in
02:50 20.7 °F 17.1 °F 1017.8 in NNE 1.6 mph 4.8 mph 80 % 0.0 in
03:00 20.6 °F 16.8 °F 1017.8 in North 1.6 mph 3.2 mph 79 % 0.0 in
03:10 20.6 °F 17.0 °F 1017.8 in Calm   3.2 mph 80 % 0.0 in
03:20 20.6 °F 16.8 °F 1017.8 in North 3.2 mph 4.8 mph 79 % 0.0 in
03:30 20.6 °F 16.8 °F 1017.8 in NE 1.6 mph 3.2 mph 79 % 0.0 in
03:40 20.6 °F 17.0 °F 1017.8 in NNE 1.6 mph 4.8 mph 80 % 0.0 in
03:50 20.7 °F 17.1 °F 1016.8 in NNE 1.6 mph 4.8 mph 80 % 0.0 in
04:00 21.0 °F 17.0 °F 1017.8 in NNE 1.6 mph 1.6 mph 78 % 0.0 in
04:10 21.2 °F 17.2 °F 1017.8 in NE 3.2 mph 3.2 mph 78 % 0.0 in
04:20 21.5 °F 17.3 °F 1016.8 in NE 4.8 mph 4.8 mph 77 % 0.0 in
04:30 22.0 °F 17.8 °F 1016.8 in NE 4.8 mph 4.8 mph 77 % 0.0 in
04:40 22.1 °F 17.7 °F 1016.8 in NE 4.8 mph 6.4 mph 76 % 0.0 in
04:50 22.2 °F 17.8 °F 1017.8 in NE 4.8 mph 6.4 mph 76 % 0.0 in
05:00 22.7 °F 18.1 °F 1017.8 in NE 3.2 mph 4.8 mph 75 % 0.0 in
05:10 23.2 °F 18.1 °F 1017.8 in NE 4.8 mph 6.4 mph 73 % 0.0 in
05:20 23.4 °F 18.3 °F 1017.8 in NNE 1.6 mph 4.8 mph 73 % 0.0 in
05:30 23.7 °F 18.3 °F 1017.8 in NE 3.2 mph 4.8 mph 72 % 0.0 in
05:40 23.8 °F 18.2 °F 1017.8 in NNE 1.6 mph 6.4 mph 71 % 0.0 in
05:50 23.8 °F 18.2 °F 1017.8 in NE 4.8 mph 6.4 mph 71 % 0.0 in
06:00 24.9 °F 18.8 °F 1017.8 in NNE 3.2 mph 6.4 mph 69 % 0.0 in
11:06 25.3 °F 18.2 °F 1017.8 in NE 1.9 mph 2.3 mph 65 % 0.0 in
11:07 25.3 °F 18.2 °F 1017.8 in NNE 5.6 mph 5.6 mph 65 % 0.0 in
11:12 25.4 °F 18.1 °F 1017.8 in ENE 7.4 mph 7.4 mph 64 % 0.0 in
11:17 25.4 °F 18.1 °F 1017.8 in ESE 2.6 mph 2.6 mph 64 % 0.0 in
11:22 25.6 °F 18.3 °F 1017.8 in ENE 5.0 mph 5.0 mph 64 % 0.0 in
11:27 26.0 °F 18.7 °F 1017.8 in SE 5.6 mph 5.6 mph 64 % 0.0 in
11:32 26.3 °F 18.7 °F 1017.8 in SW 3.9 mph 3.9 mph 63 % 0.0 in
11:37 26.5 °F 18.6 °F 1017.8 in NW 3.7 mph 3.7 mph 62 % 0.0 in
11:42 26.9 °F 19.0 °F 1017.8 in West 2.3 mph   62 % 0.0 in
11:47 27.0 °F 18.6 °F 1017.8 in WSW 1.9 mph   60 % 0.0 in
11:52 27.0 °F 18.6 °F 1017.8 in NNE 1.9 mph   60 % 0.0 in
11:57 27.2 °F 18.5 °F 1017.8 in WSW 3.7 mph 3.7 mph 59 % 0.0 in
11:58 27.4 °F 18.9 °F 1017.8 in NE 3.2 mph 3.2 mph 60 % 0.0 in
12:03 27.1 °F 18.4 °F 1017.8 in NE 7.4 mph 7.4 mph 59 % 0.0 in
12:08 27.1 °F 18.1 °F 1017.8 in South 3.7 mph 3.7 mph 58 % 0.0 in
12:13 27.7 °F 18.9 °F 1016.8 in North 3.7 mph 3.7 mph 59 % 0.0 in
12:18 27.4 °F 18.4 °F 1016.8 in ENE 7.4 mph 7.4 mph 58 % 0.0 in
12:23 27.1 °F 18.1 °F 1016.8 in ENE 5.6 mph 5.6 mph 58 % 0.0 in
12:28 27.4 °F 18.4 °F 1017.8 in WSW 3.9 mph 3.9 mph 58 % 0.0 in
12:33 27.7 °F 18.7 °F 1017.8 in NNE 3.7 mph 3.7 mph 58 % 0.0 in
12:38 27.8 °F 18.8 °F 1017.8 in ENE 5.6 mph 5.6 mph 58 % 0.0 in
12:43 27.8 °F 18.8 °F 1017.8 in East 7.4 mph 7.4 mph 58 % 0.0 in
12:48 28.0 °F 18.4 °F 1017.8 in ESE 5.6 mph 5.6 mph 56 % 0.0 in
12:53 28.2 °F 18.6 °F 1017.8 in South 9.3 mph 9.3 mph 56 % 0.0 in
12:58 28.2 °F 18.3 °F 1017.8 in ENE 9.3 mph 9.3 mph 55 % 0.0 in
13:03 28.5 °F 18.6 °F 1017.8 in ESE 7.4 mph 7.4 mph 55 % 0.0 in
13:08 29.2 °F 18.9 °F 1017.8 in SSE 9.3 mph 9.3 mph 54 % 0.0 in
13:13 29.5 °F 18.9 °F 1017.8 in NNE 5.6 mph 5.6 mph 53 % 0.0 in
13:18 29.3 °F 19.1 °F 1017.8 in NE 3.7 mph 3.7 mph 54 % 0.0 in
13:23 29.5 °F 18.9 °F 1017.8 in ESE 6.4 mph 6.4 mph 53 % 0.0 in
13:28 29.5 °F 18.6 °F 1016.8 in SSE 7.4 mph 7.4 mph 52 % 0.0 in
13:33 30.2 °F 19.3 °F 1016.8 in SE 5.6 mph 5.6 mph 52 % 0.0 in
13:38 29.9 °F 18.3 °F 1016.8 in SSE 7.4 mph 7.4 mph 50 % 0.0 in
13:43 29.9 °F 18.7 °F 1016.8 in SE 9.3 mph 9.3 mph 51 % 0.0 in
13:48 30.1 °F 18.6 °F 1016.8 in WSW 3.7 mph 3.7 mph 50 % 0.0 in
13:53 30.6 °F 19.0 °F 1016.8 in ESE 7.4 mph 7.4 mph 50 % 0.0 in
13:58 30.9 °F 19.3 °F 1016.8 in ESE 9.5 mph 9.5 mph 50 % 0.0 in
14:03 30.1 °F 17.9 °F 1016.8 in NNE 7.4 mph 7.4 mph 48 % 0.0 in
14:08 30.1 °F 18.2 °F 1016.8 in ESE 5.6 mph 5.6 mph 49 % 0.0 in
14:13 30.5 °F 18.6 °F 1015.8 in ESE 6.9 mph 6.9 mph 49 % 0.0 in
14:18 30.4 °F 18.2 °F 1015.8 in NNE 13.0 mph 13.0 mph 48 % 0.0 in
14:23 30.4 °F 18.2 °F 1015.8 in North 11.1 mph 11.1 mph 48 % 0.0 in
14:28 30.7 °F 18.1 °F 1015.8 in East 8.7 mph 8.7 mph 47 % 0.0 in
14:33 31.0 °F 18.0 °F 1015.8 in East 9.3 mph 9.3 mph 46 % 0.0 in
14:38 30.8 °F 17.8 °F 1015.8 in ESE 14.8 mph 14.8 mph 46 % 0.0 in
14:43 31.2 °F 17.8 °F 1015.8 in SE 9.3 mph 9.3 mph 45 % 0.0 in
14:48 31.2 °F 17.8 °F 1015.8 in SE 11.1 mph 11.1 mph 45 % 0.0 in
14:53 30.9 °F 17.6 °F 1015.8 in SE 13.7 mph 13.7 mph 45 % 0.0 in
14:58 31.0 °F 17.7 °F 1015.8 in ENE 7.4 mph 7.4 mph 45 % 0.0 in
15:03 30.7 °F 17.4 °F 1015.8 in NNE 5.6 mph 5.6 mph 45 % 0.0 in
15:08 31.0 °F 17.3 °F 1015.8 in ESE 9.3 mph 9.3 mph 44 % 0.0 in
15:13 31.0 °F 17.7 °F 1015.8 in South 7.4 mph 7.4 mph 45 % 0.0 in
15:18 31.0 °F 17.3 °F 1015.8 in SSE 9.3 mph 9.3 mph 44 % 0.0 in
15:23 30.9 °F 17.6 °F 1015.8 in East 13.0 mph 13.0 mph 45 % 0.0 in
15:28 31.2 °F 17.5 °F 1016.8 in East 11.1 mph 11.1 mph 44 % 0.0 in
15:33 31.1 °F 17.1 °F 1016.8 in SSE 14.8 mph 14.8 mph 43 % 0.0 in
15:35 31.3 °F 17.2 °F 1016.8 in SSW 13.0 mph 13.0 mph 43 % 0.0 in
15:40 31.3 °F 17.2 °F 1016.8 in East 14.8 mph 14.8 mph 43 % 0.0 in
15:45 31.4 °F 17.7 °F 1015.8 in ESE 9.3 mph 9.3 mph 44 % 0.0 in
15:50 31.2 °F 17.1 °F 1015.8 in SE 13.0 mph 13.0 mph 43 % 0.0 in
15:55 31.2 °F 17.1 °F 1015.8 in ESE 14.8 mph 14.8 mph 43 % 0.0 in
16:05 31.1 °F 17.1 °F 1015.8 in ENE 13.0 mph 13.0 mph 43 % 0.0 in
16:10 31.0 °F 17.3 °F 1015.8 in ENE 9.3 mph 9.3 mph 44 % 0.0 in
16:15 31.0 °F 17.3 °F 1015.8 in East 9.3 mph 9.3 mph 44 % 0.0 in
16:20 31.2 °F 17.5 °F 1015.8 in ESE 11.1 mph 11.1 mph 44 % 0.0 in
16:25 30.9 °F 17.2 °F 1015.8 in ESE 18.5 mph 18.5 mph 44 % 0.0 in
16:30 30.9 °F 17.6 °F 1015.8 in ENE 11.1 mph 11.1 mph 45 % 0.0 in
16:35 30.9 °F 17.6 °F 1015.8 in SE 14.8 mph 14.8 mph 45 % 0.0 in
16:40 30.8 °F 17.5 °F 1015.8 in ESE 20.4 mph 20.4 mph 45 % 0.0 in
16:45 30.6 °F 17.3 °F 1015.8 in ESE 17.5 mph 17.5 mph 45 % 0.0 in
16:50 30.6 °F 17.3 °F 1015.8 in East 16.7 mph 16.7 mph 45 % 0.0 in
16:55 30.7 °F 17.4 °F 1015.8 in ESE 13.0 mph 13.0 mph 45 % 0.0 in
17:00 30.5 °F 17.2 °F 1015.8 in ENE 16.7 mph 16.7 mph 45 % 0.0 in
17:05 30.3 °F 17.1 °F 1015.8 in ESE 16.7 mph 16.7 mph 45 % 0.0 in
17:10 30.0 °F 17.1 °F 1015.8 in ESE 13.0 mph 13.0 mph 46 % 0.0 in
17:15 30.1 °F 17.2 °F 1015.8 in East 9.3 mph 9.3 mph 46 % 0.0 in
17:20 30.3 °F 17.4 °F 1015.8 in East 16.7 mph 16.7 mph 46 % 0.0 in
17:25 29.9 °F 17.0 °F 1015.8 in East 18.5 mph 18.5 mph 46 % 0.0 in
17:30 29.7 °F 17.2 °F 1015.8 in ENE 16.7 mph 16.7 mph 47 % 0.0 in
17:35 29.6 °F 17.1 °F 1015.8 in ESE 16.7 mph 16.7 mph 47 % 0.0 in
17:40 29.4 °F 16.9 °F 1015.8 in East 18.5 mph 18.5 mph 47 % 0.0 in
17:45 29.2 °F 17.1 °F 1015.8 in ESE 14.8 mph 14.8 mph 48 % 0.0 in
17:50 29.2 °F 17.1 °F 1015.8 in ESE 15.8 mph 15.8 mph 48 % 0.0 in
17:55 29.2 °F 17.1 °F 1015.8 in East 16.7 mph 16.7 mph 48 % 0.0 in
18:00 29.0 °F 16.9 °F 1015.8 in SE 16.7 mph 16.7 mph 48 % 0.0 in
18:05 28.9 °F 17.1 °F 1015.8 in ESE 13.0 mph 13.0 mph 49 % 0.0 in
18:10 28.8 °F 17.0 °F 1015.8 in NE 13.0 mph 13.0 mph 49 % 0.0 in
18:15 28.6 °F 16.8 °F 1014.8 in ENE 18.5 mph 18.5 mph 49 % 0.0 in
18:20 28.5 °F 17.1 °F 1014.8 in ESE 17.5 mph 17.5 mph 50 % 0.0 in
18:25 28.4 °F 17.0 °F 1014.8 in ESE 15.6 mph 15.6 mph 50 % 0.0 in
18:30 28.1 °F 16.7 °F 1014.8 in East 22.2 mph 22.2 mph 50 % 0.0 in
18:35 28.0 °F 16.6 °F 1014.8 in ESE 14.8 mph 14.8 mph 50 % 0.0 in
18:40 27.8 °F 16.4 °F 1014.8 in ESE 18.5 mph 18.5 mph 50 % 0.0 in
18:45 27.8 °F 16.4 °F 1015.8 in SE 16.1 mph 16.1 mph 50 % 0.0 in
18:50 27.8 °F 16.4 °F 1015.8 in ESE 13.0 mph 13.0 mph 50 % 0.0 in
18:55 27.5 °F 16.2 °F 1015.8 in ESE 13.0 mph 13.0 mph 50 % 0.0 in
19:00 27.4 °F 16.1 °F 1015.8 in ENE 14.8 mph 14.8 mph 50 % 0.0 in
19:05 27.2 °F 15.9 °F 1015.8 in SE 11.1 mph 11.1 mph 50 % 0.0 in
19:10 27.1 °F 16.1 °F 1015.8 in ESE 13.0 mph 13.0 mph 51 % 0.0 in
19:15 27.1 °F 16.1 °F 1015.8 in East 11.1 mph 11.1 mph 51 % 0.0 in
19:20 26.7 °F 16.3 °F 1015.8 in ESE 20.4 mph 20.4 mph 53 % 0.0 in
19:25 26.7 °F 16.3 °F 1015.8 in ESE 9.3 mph 9.3 mph 53 % 0.0 in
19:30 26.5 °F 16.2 °F 1015.8 in ENE 13.0 mph 13.0 mph 53 % 0.0 in
19:35 26.6 °F 16.2 °F 1015.8 in SSE 9.3 mph 9.3 mph 53 % 0.0 in
19:40 26.4 °F 16.3 °F 1015.8 in ESE 10.0 mph 10.0 mph 54 % 0.0 in
19:45 26.4 °F 16.3 °F 1015.8 in North 7.4 mph 7.4 mph 54 % 0.0 in
19:50 26.3 °F 16.2 °F 1015.8 in ESE 9.3 mph 9.3 mph 54 % 0.0 in
19:55 26.2 °F 16.2 °F 1015.8 in ENE 9.3 mph 9.3 mph 54 % 0.0 in
20:00 26.2 °F 16.2 °F 1015.8 in NE 7.4 mph 7.4 mph 54 % 0.0 in
20:05 26.1 °F 16.1 °F 1015.8 in NE 9.3 mph 9.3 mph 54 % 0.0 in
20:10 26.0 °F 16.3 °F 1015.8 in East 11.4 mph 11.4 mph 55 % 0.0 in
20:15 25.9 °F 16.2 °F 1015.8 in ENE 9.3 mph 9.3 mph 55 % 0.0 in
20:20 25.9 °F 16.2 °F 1015.8 in ENE 7.4 mph 7.4 mph 55 % 0.0 in
20:25 25.7 °F 16.0 °F 1015.8 in ESE 9.5 mph 9.5 mph 55 % 0.0 in
20:30 25.6 °F 16.2 °F 1015.8 in ESE 7.4 mph 7.4 mph 56 % 0.0 in
20:35 25.6 °F 16.2 °F 1015.8 in NE 9.3 mph 9.3 mph 56 % 0.0 in
20:40 25.4 °F 16.3 °F 1015.8 in ESE 9.3 mph 9.3 mph 57 % 0.0 in
20:45 25.2 °F 16.1 °F 1016.8 in East 7.9 mph 7.9 mph 57 % 0.0 in
20:50 25.1 °F 16.0 °F 1016.8 in ENE 11.1 mph 11.1 mph 57 % 0.0 in
20:55 25.0 °F 15.9 °F 1016.8 in East 9.3 mph 9.3 mph 57 % 0.0 in
21:00 24.9 °F 16.1 °F 1016.8 in ESE 11.1 mph 11.1 mph 58 % 0.0 in
21:05 24.8 °F 16.0 °F 1016.8 in ESE 9.5 mph 9.5 mph 58 % 0.0 in
21:10 24.7 °F 16.2 °F 1016.8 in East 9.3 mph 9.3 mph 59 % 0.0 in
21:15 24.6 °F 16.3 °F 1016.8 in NNE 7.4 mph 7.4 mph 60 % 0.0 in
21:20 24.5 °F 16.2 °F 1016.8 in ESE 6.4 mph 6.4 mph 60 % 0.0 in
21:25 24.3 °F 16.1 °F 1016.8 in ENE 5.6 mph 5.6 mph 60 % 0.0 in
21:30 24.3 °F 16.3 °F 1018.8 in ESE 5.6 mph 5.6 mph 61 % 0.0 in
21:31 24.3 °F 16.3 °F 1018.8 in SE 5.6 mph 5.6 mph 61 % 0.0 in
21:36 24.2 °F 16.2 °F 1018.8 in ESE 9.0 mph 9.0 mph 61 % 0.0 in
21:41 24.2 °F 16.4 °F 1018.8 in East 3.9 mph 3.9 mph 62 % 0.0 in
21:46 24.1 °F 16.4 °F 1017.8 in NNE 5.6 mph 5.6 mph 62 % 0.0 in
21:51 24.1 °F 16.4 °F 1017.8 in ENE 5.6 mph 5.6 mph 62 % 0.0 in
21:56 24.0 °F 16.0 °F 1017.8 in East 5.6 mph 5.6 mph 61 % 0.0 in
22:01 24.0 °F 16.3 °F 1016.8 in ESE 3.7 mph 3.7 mph 62 % 0.0 in
22:06 24.0 °F 16.0 °F 1016.8 in ESE 5.6 mph 5.6 mph 61 % 0.0 in
22:11 23.9 °F 16.2 °F 1016.8 in NE 3.7 mph 3.7 mph 62 % 0.0 in
22:16 23.8 °F 16.3 °F 1017.8 in Calm     63 % 0.0 in
22:21 23.8 °F 16.3 °F 1017.8 in East 3.7 mph 3.7 mph 63 % 0.0 in
22:26 23.7 °F 16.2 °F 1017.8 in ESE 3.7 mph 3.7 mph 63 % 0.0 in
22:31 23.6 °F 16.2 °F 1017.8 in ENE 1.9 mph 1.9 mph 63 % 0.0 in
22:32 23.6 °F 16.2 °F 1017.8 in NE 3.7 mph 3.7 mph 63 % 0.0 in
22:37 23.6 °F 16.2 °F 1017.8 in NNE 3.7 mph 3.7 mph 63 % 0.0 in
22:42 23.6 °F 15.9 °F 1017.8 in NE 1.9 mph   62 % 0.0 in
22:47 23.5 °F 15.8 °F 1017.8 in Calm     62 % 0.0 in
22:52 23.5 °F 15.8 °F 1017.8 in NE 1.9 mph   62 % 0.0 in
22:57 23.5 °F 15.6 °F 1017.8 in ENE 3.7 mph 3.7 mph 61 % 0.0 in
23:02 23.4 °F 15.4 °F 1017.8 in Calm     61 % 0.0 in
23:07 23.3 °F 15.3 °F 1017.8 in Calm     61 % 0.0 in
23:12 23.3 °F 15.3 °F 1017.8 in Calm     61 % 0.0 in
23:17 23.2 °F 15.0 °F 1017.8 in Calm     60 % 0.0 in
23:22 23.1 °F 14.9 °F 1017.8 in NNW 1.9 mph   60 % 0.0 in
23:27 23.0 °F 14.8 °F 1017.8 in Calm     60 % 0.0 in
23:32 23.0 °F 14.8 °F 1017.8 in NNE 1.9 mph   60 % 0.0 in
23:37 23.0 °F 14.8 °F 1017.8 in NNE 1.9 mph   60 % 0.0 in
23:42 22.9 °F 14.7 °F 1017.8 in NW 1.9 mph   60 % 0.0 in
23:47 22.9 °F 14.7 °F 1017.8 in West 1.9 mph 1.9 mph 60 % 0.0 in
23:52 22.9 °F 14.7 °F 1017.8 in Calm     60 % 0.0 in
23:57 22.8 °F 14.6 °F 1017.8 in NNW 1.9 mph   60 % 0.0 in
Meteo Sesrovires
Elogis d' Weather Underground - 4 mb

Guio original per  Jim McMurry - jmcmurry@mwt.net Adaptat per a la plantilla per  Wim van der Kuil - Leuven-Template.eu

Trobareu la nostra informacio del temps tambe a:

Weather Underground

AWEKAS